sensor_id;sensor_type;location;lat;lon;timestamp;pressure;altitude;pressure_sealevel;temperature;humidity
64078;BME280;51039;49.696;10.808;2023-05-10T00:02:22;97667.13;;;14.98;95.63
64078;BME280;51039;49.696;10.808;2023-05-10T00:04:47;97662.78;;;14.91;95.73
64078;BME280;51039;49.696;10.808;2023-05-10T00:07:13;97655.81;;;14.90;96.10
64078;BME280;51039;49.696;10.808;2023-05-10T00:09:38;97660.91;;;14.92;96.38
64078;BME280;51039;49.696;10.808;2023-05-10T00:12:04;97655.03;;;14.90;97.50
64078;BME280;51039;49.696;10.808;2023-05-10T00:14:29;97658.69;;;14.84;98.39
64078;BME280;51039;49.696;10.808;2023-05-10T00:16:55;97654.41;;;14.83;99.05
64078;BME280;51039;49.696;10.808;2023-05-10T00:19:20;97653.03;;;14.80;99.07
64078;BME280;51039;49.696;10.808;2023-05-10T00:21:46;97655.38;;;14.77;99.95
64078;BME280;51039;49.696;10.808;2023-05-10T00:24:11;97651.59;;;14.72;100.00
64078;BME280;51039;49.696;10.808;2023-05-10T00:26:36;97648.94;;;14.72;100.00
64078;BME280;51039;49.696;10.808;2023-05-10T00:29:02;97647.31;;;14.71;100.00
64078;BME280;51039;49.696;10.808;2023-05-10T00:31:27;97642.22;;;14.70;100.00
64078;BME280;51039;49.696;10.808;2023-05-10T00:33:52;97638.44;;;14.66;100.00
64078;BME280;51039;49.696;10.808;2023-05-10T00:36:17;97632.78;;;14.62;100.00
64078;BME280;51039;49.696;10.808;2023-05-10T00:38:43;97639.00;;;14.68;100.00
64078;BME280;51039;49.696;10.808;2023-05-10T00:41:08;97642.50;;;14.68;100.00
64078;BME280;51039;49.696;10.808;2023-05-10T00:43:34;97642.97;;;14.65;100.00
64078;BME280;51039;49.696;10.808;2023-05-10T00:45:59;97646.41;;;14.61;100.00
64078;BME280;51039;49.696;10.808;2023-05-10T00:48:25;97639.09;;;14.56;100.00
64078;BME280;51039;49.696;10.808;2023-05-10T00:50:50;97643.53;;;14.50;100.00
64078;BME280;51039;49.696;10.808;2023-05-10T00:53:16;97641.06;;;14.44;100.00
64078;BME280;51039;49.696;10.808;2023-05-10T00:55:41;97639.19;;;14.44;100.00
64078;BME280;51039;49.696;10.808;2023-05-10T00:58:07;97638.88;;;14.41;100.00
64078;BME280;51039;49.696;10.808;2023-05-10T01:00:33;97634.34;;;14.41;100.00
64078;BME280;51039;49.696;10.808;2023-05-10T01:02:59;97638.63;;;14.42;100.00
64078;BME280;51039;49.696;10.808;2023-05-10T01:05:25;97639.06;;;14.34;100.00
64078;BME280;51039;49.696;10.808;2023-05-10T01:07:52;97638.78;;;14.36;100.00
64078;BME280;51039;49.696;10.808;2023-05-10T01:10:17;97634.28;;;14.36;100.00
64078;BME280;51039;49.696;10.808;2023-05-10T01:12:43;97643.31;;;14.35;100.00
64078;BME280;51039;49.696;10.808;2023-05-10T01:15:11;97628.47;;;14.39;100.00
64078;BME280;51039;49.696;10.808;2023-05-10T01:17:38;97638.88;;;14.41;100.00
64078;BME280;51039;49.696;10.808;2023-05-10T01:20:07;97637.53;;;14.38;100.00
64078;BME280;51039;49.696;10.808;2023-05-10T01:22:57;97644.38;;;14.34;100.00
64078;BME280;51039;49.696;10.808;2023-05-10T01:28:58;97633.97;;;14.32;100.00
64078;BME280;51039;49.696;10.808;2023-05-10T01:34:21;97639.53;;;14.31;100.00
64078;BME280;51039;49.696;10.808;2023-05-10T01:36:53;97631.53;;;14.31;100.00
64078;BME280;51039;49.696;10.808;2023-05-10T01:39:29;97636.88;;;14.31;100.00
64078;BME280;51039;49.696;10.808;2023-05-10T01:42:08;97637.94;;;14.30;100.00
64078;BME280;51039;49.696;10.808;2023-05-10T01:44:39;97635.50;;;14.28;100.00
64078;BME280;51039;49.696;10.808;2023-05-10T01:47:25;97631.53;;;14.31;100.00
64078;BME280;51039;49.696;10.808;2023-05-10T01:50:19;97640.28;;;14.26;100.00
64078;BME280;51039;49.696;10.808;2023-05-10T01:52:56;97629.13;;;14.29;100.00
64078;BME280;51039;49.696;10.808;2023-05-10T01:55:24;97637.13;;;14.29;100.00
64078;BME280;51039;49.696;10.808;2023-05-10T01:57:54;97633.19;;;14.32;100.00
64078;BME280;51039;49.696;10.808;2023-05-10T02:00:25;97639.22;;;14.27;100.00
64078;BME280;51039;49.696;10.808;2023-05-10T02:02:52;97642.06;;;14.21;100.00
64078;BME280;51039;49.696;10.808;2023-05-10T02:05:20;97634.31;;;14.19;100.00
64078;BME280;51039;49.696;10.808;2023-05-10T02:07:47;97638.66;;;14.25;100.00
64078;BME280;51039;49.696;10.808;2023-05-10T02:10:15;97633.09;;;14.27;100.00
64078;BME280;51039;49.696;10.808;2023-05-10T02:12:41;97635.00;;;14.31;100.00
64078;BME280;51039;49.696;10.808;2023-05-10T02:15:08;97641.09;;;14.27;100.00
64078;BME280;51039;49.696;10.808;2023-05-10T02:17:37;97640.44;;;14.20;100.00
64078;BME280;51039;49.696;10.808;2023-05-10T02:20:03;97645.75;;;14.20;100.00
64078;BME280;51039;49.696;10.808;2023-05-10T02:22:31;97649.97;;;14.16;100.00
64078;BME280;51039;49.696;10.808;2023-05-10T02:24:58;97659.03;;;14.14;100.00
64078;BME280;51039;49.696;10.808;2023-05-10T02:27:25;97658.03;;;14.04;100.00
64078;BME280;51039;49.696;10.808;2023-05-10T02:29:53;97662.00;;;13.84;100.00
64078;BME280;51039;49.696;10.808;2023-05-10T02:32:19;97662.06;;;13.72;100.00
64078;BME280;51039;49.696;10.808;2023-05-10T02:34:47;97658.63;;;13.60;100.00
64078;BME280;51039;49.696;10.808;2023-05-10T02:37:16;97661.22;;;13.55;100.00
64078;BME280;51039;49.696;10.808;2023-05-10T02:39:45;97670.72;;;13.51;100.00
64078;BME280;51039;49.696;10.808;2023-05-10T02:42:13;97673.88;;;13.48;100.00
64078;BME280;51039;49.696;10.808;2023-05-10T02:44:43;97663.78;;;13.50;100.00
64078;BME280;51039;49.696;10.808;2023-05-10T02:47:10;97663.56;;;13.51;100.00
64078;BME280;51039;49.696;10.808;2023-05-10T02:49:35;97664.13;;;13.53;100.00
64078;BME280;51039;49.696;10.808;2023-05-10T02:52:01;97664.03;;;13.48;100.00
64078;BME280;51039;49.696;10.808;2023-05-10T02:54:30;97662.66;;;13.46;100.00
64078;BME280;51039;49.696;10.808;2023-05-10T02:56:58;97662.78;;;13.39;100.00
64078;BME280;51039;49.696;10.808;2023-05-10T02:59:25;97659.31;;;13.39;100.00
64078;BME280;51039;49.696;10.808;2023-05-10T03:01:51;97662.09;;;13.44;100.00
64078;BME280;51039;49.696;10.808;2023-05-10T03:04:16;97654.22;;;13.37;100.00
64078;BME280;51039;49.696;10.808;2023-05-10T03:06:42;97651.81;;;13.35;100.00
64078;BME280;51039;49.696;10.808;2023-05-10T03:09:08;97660.69;;;13.41;100.00
64078;BME280;51039;49.696;10.808;2023-05-10T03:14:21;97654.72;;;13.34;100.00
64078;BME280;51039;49.696;10.808;2023-05-10T03:17:29;97654.72;;;13.34;100.00
64078;BME280;51039;49.696;10.808;2023-05-10T03:20:03;97657.13;;;13.35;100.00
64078;BME280;51039;49.696;10.808;2023-05-10T03:22:32;97655.88;;;13.38;100.00
64078;BME280;51039;49.696;10.808;2023-05-10T03:25:04;97660.28;;;13.32;100.00
64078;BME280;51039;49.696;10.808;2023-05-10T03:27:31;97665.81;;;13.31;100.00
64078;BME280;51039;49.696;10.808;2023-05-10T03:29:57;97667.09;;;13.28;100.00
64078;BME280;51039;49.696;10.808;2023-05-10T03:32:23;97670.34;;;13.30;100.00
64078;BME280;51039;49.696;10.808;2023-05-10T03:34:48;97669.56;;;13.30;100.00
64078;BME280;51039;49.696;10.808;2023-05-10T03:37:13;97668.13;;;13.27;100.00
64078;BME280;51039;49.696;10.808;2023-05-10T03:39:39;97678.75;;;13.27;100.00
64078;BME280;51039;49.696;10.808;2023-05-10T03:42:04;97681.00;;;13.30;100.00
64078;BME280;51039;49.696;10.808;2023-05-10T03:44:29;97685.72;;;13.28;100.00
64078;BME280;51039;49.696;10.808;2023-05-10T03:46:55;97677.28;;;13.20;100.00
64078;BME280;51039;49.696;10.808;2023-05-10T03:49:21;97683.75;;;13.24;100.00
64078;BME280;51039;49.696;10.808;2023-05-10T03:51:47;97686.53;;;13.17;100.00
64078;BME280;51039;49.696;10.808;2023-05-10T03:54:12;97689.78;;;13.19;100.00
64078;BME280;51039;49.696;10.808;2023-05-10T03:56:37;97695.31;;;13.18;100.00
64078;BME280;51039;49.696;10.808;2023-05-10T03:59:03;97697.97;;;13.18;100.00
64078;BME280;51039;49.696;10.808;2023-05-10T04:01:32;97692.47;;;13.07;100.00
64078;BME280;51039;49.696;10.808;2023-05-10T04:03:57;97708.50;;;13.12;100.00
64078;BME280;51039;49.696;10.808;2023-05-10T04:06:23;97703.91;;;13.08;100.00
64078;BME280;51039;49.696;10.808;2023-05-10T04:08:48;97695.34;;;13.06;100.00
64078;BME280;51039;49.696;10.808;2023-05-10T04:11:13;97707.84;;;13.05;100.00
64078;BME280;51039;49.696;10.808;2023-05-10T04:13:39;97707.03;;;13.05;100.00
64078;BME280;51039;49.696;10.808;2023-05-10T04:16:04;97707.03;;;13.05;100.00
64078;BME280;51039;49.696;10.808;2023-05-10T04:18:30;97709.22;;;13.08;100.00
64078;BME280;51039;49.696;10.808;2023-05-10T04:20:56;97717.44;;;13.06;100.00
64078;BME280;51039;49.696;10.808;2023-05-10T04:23:21;97721.94;;;13.06;100.00
64078;BME280;51039;49.696;10.808;2023-05-10T04:25:46;97720.22;;;13.00;100.00
64078;BME280;51039;49.696;10.808;2023-05-10T04:28:12;97724.41;;;12.95;100.00
64078;BME280;51039;49.696;10.808;2023-05-10T04:30:37;97720.31;;;13.05;100.00
64078;BME280;51039;49.696;10.808;2023-05-10T04:33:02;97720.19;;;13.11;100.00
64078;BME280;51039;49.696;10.808;2023-05-10T04:35:28;97725.63;;;13.05;100.00
64078;BME280;51039;49.696;10.808;2023-05-10T04:37:53;97728.91;;;13.07;100.00
64078;BME280;51039;49.696;10.808;2023-05-10T04:40:19;97738.50;;;12.96;100.00
64078;BME280;51039;49.696;10.808;2023-05-10T04:42:45;97731.31;;;12.96;100.00
64078;BME280;51039;49.696;10.808;2023-05-10T04:45:10;97726.47;;;12.93;100.00
64078;BME280;51039;49.696;10.808;2023-05-10T04:47:36;97731.81;;;12.93;100.00
64078;BME280;51039;49.696;10.808;2023-05-10T04:50:02;97739.28;;;12.96;100.00
64078;BME280;51039;49.696;10.808;2023-05-10T04:52:28;97737.56;;;13.02;100.00
64078;BME280;51039;49.696;10.808;2023-05-10T04:54:53;97747.38;;;13.02;100.00
64078;BME280;51039;49.696;10.808;2023-05-10T04:57:19;97747.50;;;13.07;100.00
64078;BME280;51039;49.696;10.808;2023-05-10T04:59:44;97756.63;;;13.11;100.00
64078;BME280;51039;49.696;10.808;2023-05-10T05:02:09;97758.47;;;13.22;100.00
64078;BME280;51039;49.696;10.808;2023-05-10T05:04:35;97762.72;;;13.35;100.00
64078;BME280;51039;49.696;10.808;2023-05-10T05:07:00;97757.38;;;13.47;100.00
64078;BME280;51039;49.696;10.808;2023-05-10T05:09:25;97761.38;;;13.61;100.00
64078;BME280;51039;49.696;10.808;2023-05-10T05:11:51;97761.00;;;13.69;100.00
64078;BME280;51039;49.696;10.808;2023-05-10T05:14:16;97760.59;;;13.61;100.00
64078;BME280;51039;49.696;10.808;2023-05-10T05:16:42;97769.44;;;13.78;100.00
64078;BME280;51039;49.696;10.808;2023-05-10T05:19:07;97774.69;;;13.90;100.00
64078;BME280;51039;49.696;10.808;2023-05-10T05:21:32;97777.59;;;13.88;100.00
64078;BME280;51039;49.696;10.808;2023-05-10T05:23:58;97778.44;;;13.77;100.00
64078;BME280;51039;49.696;10.808;2023-05-10T05:26:23;97782.47;;;13.80;100.00
64078;BME280;51039;49.696;10.808;2023-05-10T05:28:48;97781.75;;;13.55;100.00
64078;BME280;51039;49.696;10.808;2023-05-10T05:31:16;97786.38;;;13.60;100.00
64078;BME280;51039;49.696;10.808;2023-05-10T05:33:42;97782.56;;;13.56;100.00
64078;BME280;51039;49.696;10.808;2023-05-10T05:36:08;97782.81;;;13.83;100.00
64078;BME280;51039;49.696;10.808;2023-05-10T05:38:34;97778.84;;;13.98;100.00
64078;BME280;51039;49.696;10.808;2023-05-10T05:40:59;97781.63;;;13.91;100.00
64078;BME280;51039;49.696;10.808;2023-05-10T05:43:25;97786.88;;;14.14;100.00
64078;BME280;51039;49.696;10.808;2023-05-10T05:45:51;97782.66;;;14.36;100.00
64078;BME280;51039;49.696;10.808;2023-05-10T05:48:18;97780.31;;;14.39;100.00
64078;BME280;51039;49.696;10.808;2023-05-10T05:50:44;97781.47;;;14.43;100.00
64078;BME280;51039;49.696;10.808;2023-05-10T05:53:10;97788.72;;;14.31;100.00
64078;BME280;51039;49.696;10.808;2023-05-10T05:55:35;97789.78;;;14.30;100.00
64078;BME280;51039;49.696;10.808;2023-05-10T05:58:01;97795.28;;;14.40;100.00
64078;BME280;51039;49.696;10.808;2023-05-10T06:00:26;97811.94;;;14.47;100.00
64078;BME280;51039;49.696;10.808;2023-05-10T06:02:52;97811.44;;;14.50;100.00
64078;BME280;51039;49.696;10.808;2023-05-10T06:05:17;97813.38;;;14.38;100.00
64078;BME280;51039;49.696;10.808;2023-05-10T06:07:42;97813.72;;;14.59;100.00
64078;BME280;51039;49.696;10.808;2023-05-10T06:10:08;97821.47;;;14.60;99.82
64078;BME280;51039;49.696;10.808;2023-05-10T06:12:34;97821.47;;;14.77;98.95
64078;BME280;51039;49.696;10.808;2023-05-10T06:15:00;97827.19;;;15.03;98.38
64078;BME280;51039;49.696;10.808;2023-05-10T06:17:25;97826.59;;;15.18;96.95
64078;BME280;51039;49.696;10.808;2023-05-10T06:19:51;97831.16;;;15.00;96.52
64078;BME280;51039;49.696;10.808;2023-05-10T06:22:16;97829.03;;;15.19;96.50
64078;BME280;51039;49.696;10.808;2023-05-10T06:24:42;97834.38;;;15.19;95.16
64078;BME280;51039;49.696;10.808;2023-05-10T06:27:08;97837.53;;;15.55;94.38
64078;BME280;51039;49.696;10.808;2023-05-10T06:29:33;97849.41;;;15.86;92.88
64078;BME280;51039;49.696;10.808;2023-05-10T06:31:59;97849.31;;;15.76;93.23
64078;BME280;51039;49.696;10.808;2023-05-10T06:34:24;97842.13;;;15.82;91.65
64078;BME280;51039;49.696;10.808;2023-05-10T06:36:49;97840.38;;;16.42;88.91
64078;BME280;51039;49.696;10.808;2023-05-10T06:39:15;97841.09;;;16.64;86.59
64078;BME280;51039;49.696;10.808;2023-05-10T06:41:41;97844.28;;;16.88;84.00
64078;BME280;51039;49.696;10.808;2023-05-10T06:44:06;97837.63;;;16.64;84.43
64078;BME280;51039;49.696;10.808;2023-05-10T06:46:32;97845.41;;;16.38;86.40
64078;BME280;51039;49.696;10.808;2023-05-10T06:48:57;97843.63;;;16.17;87.75
64078;BME280;51039;49.696;10.808;2023-05-10T06:51:23;97845.59;;;16.32;87.15
64078;BME280;51039;49.696;10.808;2023-05-10T06:53:48;97840.22;;;16.26;86.06
64078;BME280;51039;49.696;10.808;2023-05-10T06:56:14;97846.22;;;16.12;87.38
64078;BME280;51039;49.696;10.808;2023-05-10T06:58:39;97845.81;;;16.52;85.28
64078;BME280;51039;49.696;10.808;2023-05-10T07:01:05;97845.31;;;16.82;84.81
64078;BME280;51039;49.696;10.808;2023-05-10T07:03:30;97849.06;;;16.86;83.60
64078;BME280;51039;49.696;10.808;2023-05-10T07:06:00;97847.53;;;16.96;82.37
64078;BME280;51039;49.696;10.808;2023-05-10T07:08:27;97844.06;;;16.68;84.30
64078;BME280;51039;49.696;10.808;2023-05-10T07:10:53;97847.81;;;16.67;84.78
64078;BME280;51039;49.696;10.808;2023-05-10T07:13:28;97843.47;;;16.88;83.64
64078;BME280;51039;49.696;10.808;2023-05-10T07:15:54;97850.75;;;16.98;82.98
64078;BME280;51039;49.696;10.808;2023-05-10T07:18:19;97848.09;;;16.98;81.08
64078;BME280;51039;49.696;10.808;2023-05-10T07:20:44;97844.63;;;17.02;80.51
64078;BME280;51039;49.696;10.808;2023-05-10T07:23:10;97851.31;;;17.05;79.51
64078;BME280;51039;49.696;10.808;2023-05-10T07:25:35;97852.75;;;17.18;79.70
64078;BME280;51039;49.696;10.808;2023-05-10T07:28:00;97855.44;;;17.65;79.24
64078;BME280;51039;49.696;10.808;2023-05-10T07:30:25;97863.19;;;18.45;75.30
64078;BME280;51039;49.696;10.808;2023-05-10T07:32:51;97860.41;;;17.94;76.37
64078;BME280;51039;49.696;10.808;2023-05-10T07:35:16;97869.66;;;17.76;78.48
64078;BME280;51039;49.696;10.808;2023-05-10T07:37:41;97866.75;;;17.30;77.66
64078;BME280;51039;49.696;10.808;2023-05-10T07:40:07;97873.00;;;16.76;81.18
64078;BME280;51039;49.696;10.808;2023-05-10T07:42:33;97873.72;;;16.34;82.27
64078;BME280;51039;49.696;10.808;2023-05-10T07:44:58;97871.63;;;16.41;82.13
64078;BME280;51039;49.696;10.808;2023-05-10T07:47:23;97869.25;;;16.18;84.32
64078;BME280;51039;49.696;10.808;2023-05-10T07:49:48;97876.78;;;15.99;84.66
64078;BME280;51039;49.696;10.808;2023-05-10T07:52:14;97864.28;;;15.60;85.90
64078;BME280;51039;49.696;10.808;2023-05-10T07:54:39;97878.09;;;15.35;88.23
64078;BME280;51039;49.696;10.808;2023-05-10T07:57:04;97878.03;;;15.30;89.64
64078;BME280;51039;49.696;10.808;2023-05-10T07:59:30;97878.63;;;15.54;90.15
64078;BME280;51039;49.696;10.808;2023-05-10T08:01:55;97872.06;;;15.45;87.54
64078;BME280;51039;49.696;10.808;2023-05-10T08:04:21;97873.22;;;15.88;87.09
64078;BME280;51039;49.696;10.808;2023-05-10T08:06:47;97878.09;;;16.45;86.00
64078;BME280;51039;49.696;10.808;2023-05-10T08:09:12;97879.94;;;16.72;82.66
64078;BME280;51039;49.696;10.808;2023-05-10T08:11:38;97887.97;;;16.72;81.43
64078;BME280;51039;49.696;10.808;2023-05-10T08:14:03;97884.94;;;16.63;83.16
64078;BME280;51039;49.696;10.808;2023-05-10T08:16:28;97886.84;;;16.68;83.94
64078;BME280;51039;49.696;10.808;2023-05-10T08:18:54;97892.81;;;16.75;83.74
64078;BME280;51039;49.696;10.808;2023-05-10T08:21:20;97887.88;;;16.62;83.37
64078;BME280;51039;49.696;10.808;2023-05-10T08:23:45;97888.66;;;16.57;82.92
64078;BME280;51039;49.696;10.808;2023-05-10T08:26:10;97892.44;;;16.61;83.19
64078;BME280;51039;49.696;10.808;2023-05-10T08:28:36;97910.78;;;16.53;82.15
64078;BME280;51039;49.696;10.808;2023-05-10T08:31:02;97907.44;;;16.13;85.40
64078;BME280;51039;49.696;10.808;2023-05-10T08:33:27;97913.47;;;16.03;85.58
64078;BME280;51039;49.696;10.808;2023-05-10T08:35:53;97912.31;;;15.99;87.29
64078;BME280;51039;49.696;10.808;2023-05-10T08:38:18;97915.41;;;16.35;85.33
64078;BME280;51039;49.696;10.808;2023-05-10T08:40:43;97915.00;;;16.48;85.02
64078;BME280;51039;49.696;10.808;2023-05-10T08:43:10;97915.31;;;16.25;84.65
64078;BME280;51039;49.696;10.808;2023-05-10T08:45:37;97914.16;;;16.70;83.16
64078;BME280;51039;49.696;10.808;2023-05-10T08:48:08;97920.50;;;16.86;81.42
64078;BME280;51039;49.696;10.808;2023-05-10T08:50:38;97921.38;;;17.29;80.72
64078;BME280;51039;49.696;10.808;2023-05-10T08:53:06;97924.66;;;17.41;79.69
64078;BME280;51039;49.696;10.808;2023-05-10T08:55:34;97924.94;;;17.45;78.47
64078;BME280;51039;49.696;10.808;2023-05-10T08:58:02;97927.38;;;17.89;78.23
64078;BME280;51039;49.696;10.808;2023-05-10T09:00:28;97929.97;;;18.47;75.28
64078;BME280;51039;49.696;10.808;2023-05-10T09:02:54;97924.41;;;18.64;75.35
64078;BME280;51039;49.696;10.808;2023-05-10T09:05:20;97926.00;;;18.60;73.82
64078;BME280;51039;49.696;10.808;2023-05-10T09:07:45;97922.84;;;18.99;70.57
64078;BME280;51039;49.696;10.808;2023-05-10T09:10:11;97924.13;;;19.68;70.76
64078;BME280;51039;49.696;10.808;2023-05-10T09:12:36;97927.56;;;19.94;69.21
64078;BME280;51039;49.696;10.808;2023-05-10T09:15:03;97928.16;;;19.81;68.00
64078;BME280;51039;49.696;10.808;2023-05-10T09:17:29;97927.72;;;20.24;67.52
64078;BME280;51039;49.696;10.808;2023-05-10T09:19:59;97924.06;;;20.54;64.00
64078;BME280;51039;49.696;10.808;2023-05-10T09:22:25;97926.00;;;20.93;65.32
64078;BME280;51039;49.696;10.808;2023-05-10T09:25:06;97927.44;;;21.14;63.10
64078;BME280;51039;49.696;10.808;2023-05-10T09:27:34;97937.53;;;19.84;63.35
64078;BME280;51039;49.696;10.808;2023-05-10T09:30:00;97930.09;;;19.24;63.57
64078;BME280;51039;49.696;10.808;2023-05-10T09:32:39;97935.16;;;19.61;64.04
64078;BME280;51039;49.696;10.808;2023-05-10T09:35:15;97927.50;;;21.92;57.14
64078;BME280;51039;49.696;10.808;2023-05-10T09:37:43;97928.38;;;23.11;55.29
64078;BME280;51039;49.696;10.808;2023-05-10T09:40:11;97929.22;;;22.88;55.23
64078;BME280;51039;49.696;10.808;2023-05-10T09:42:51;97921.00;;;22.60;56.08
64078;BME280;51039;49.696;10.808;2023-05-10T09:45:25;97922.75;;;22.08;55.95
64078;BME280;51039;49.696;10.808;2023-05-10T09:47:52;97931.06;;;21.87;55.76
64078;BME280;51039;49.696;10.808;2023-05-10T09:50:18;97927.03;;;22.90;53.93
64078;BME280;51039;49.696;10.808;2023-05-10T09:52:48;97931.00;;;22.41;53.80
64078;BME280;51039;49.696;10.808;2023-05-10T09:55:14;97931.69;;;22.03;54.87
64078;BME280;51039;49.696;10.808;2023-05-10T09:57:39;97927.31;;;21.59;54.32
64078;BME280;51039;49.696;10.808;2023-05-10T10:00:06;97926.81;;;21.81;53.41
64078;BME280;51039;49.696;10.808;2023-05-10T10:02:32;97928.22;;;22.27;53.31
64078;BME280;51039;49.696;10.808;2023-05-10T10:04:58;97931.19;;;23.01;52.19
64078;BME280;51039;49.696;10.808;2023-05-10T10:07:25;97924.97;;;23.20;50.65
64078;BME280;51039;49.696;10.808;2023-05-10T10:09:51;97923.25;;;22.91;52.79
64078;BME280;51039;49.696;10.808;2023-05-10T10:12:18;97920.94;;;22.46;52.31
64078;BME280;51039;49.696;10.808;2023-05-10T10:14:44;97914.16;;;22.68;51.94
64078;BME280;51039;49.696;10.808;2023-05-10T10:17:11;97914.59;;;22.75;50.96
64078;BME280;51039;49.696;10.808;2023-05-10T10:19:37;97914.94;;;23.06;50.37
64078;BME280;51039;49.696;10.808;2023-05-10T10:22:02;97909.25;;;23.82;49.32
64078;BME280;51039;49.696;10.808;2023-05-10T10:24:27;97909.63;;;25.26;47.25
64078;BME280;51039;49.696;10.808;2023-05-10T10:26:54;97912.56;;;25.16;47.42
64078;BME280;51039;49.696;10.808;2023-05-10T10:29:36;97901.59;;;25.44;45.44
64078;BME280;51039;49.696;10.808;2023-05-10T10:32:59;97910.31;;;24.87;45.88
64078;BME280;51039;49.696;10.808;2023-05-10T10:35:15;97914.69;;;23.36;48.03
64078;BME280;51039;49.696;10.808;2023-05-10T10:37:42;97907.13;;;22.05;51.88
64078;BME280;51039;49.696;10.808;2023-05-10T10:42:50;97915.13;;;20.09;56.83
64078;BME280;51039;49.696;10.808;2023-05-10T10:45:16;97913.50;;;20.18;57.25
64078;BME280;51039;49.696;10.808;2023-05-10T10:47:41;97908.56;;;20.35;56.85
64078;BME280;51039;49.696;10.808;2023-05-10T10:50:08;97916.56;;;20.46;56.39
64078;BME280;51039;49.696;10.808;2023-05-10T11:00:30;97934.13;;;19.27;59.29
64078;BME280;51039;49.696;10.808;2023-05-10T11:05:50;97920.38;;;19.64;59.26
64078;BME280;51039;49.696;10.808;2023-05-10T11:08:29;97926.06;;;19.32;61.19
64078;BME280;51039;49.696;10.808;2023-05-10T11:13:27;97922.84;;;18.89;61.20
64078;BME280;51039;49.696;10.808;2023-05-10T11:15:54;97916.16;;;19.12;61.03
64078;BME280;51039;49.696;10.808;2023-05-10T11:18:28;97917.88;;;19.98;59.99
64078;BME280;51039;49.696;10.808;2023-05-10T11:20:57;97919.56;;;19.58;61.54
64078;BME280;51039;49.696;10.808;2023-05-10T11:23:29;97921.72;;;19.72;60.26
64078;BME280;51039;49.696;10.808;2023-05-10T11:25:55;97918.78;;;20.33;59.84
64078;BME280;51039;49.696;10.808;2023-05-10T11:28:21;97914.97;;;20.45;58.90
64078;BME280;51039;49.696;10.808;2023-05-10T11:30:46;97911.75;;;20.48;58.68
64078;BME280;51039;49.696;10.808;2023-05-10T11:33:18;97917.69;;;19.69;61.03
64078;BME280;51039;49.696;10.808;2023-05-10T11:35:44;97922.78;;;19.86;61.32
64078;BME280;51039;49.696;10.808;2023-05-10T11:38:10;97919.72;;;20.13;60.22
64078;BME280;51039;49.696;10.808;2023-05-10T11:40:37;97915.72;;;20.06;61.74
64078;BME280;51039;49.696;10.808;2023-05-10T11:43:03;97925.47;;;19.86;62.53
64078;BME280;51039;49.696;10.808;2023-05-10T11:45:31;97922.41;;;20.13;60.80
64078;BME280;51039;49.696;10.808;2023-05-10T11:47:58;97915.03;;;20.34;60.29
64078;BME280;51039;49.696;10.808;2023-05-10T11:50:24;97919.50;;;20.49;59.75
64078;BME280;51039;49.696;10.808;2023-05-10T11:52:51;97911.41;;;20.99;60.35
64078;BME280;51039;49.696;10.808;2023-05-10T11:55:17;97912.78;;;21.26;59.25
64078;BME280;51039;49.696;10.808;2023-05-10T11:57:43;97905.13;;;21.38;57.22
64078;BME280;51039;49.696;10.808;2023-05-10T12:00:10;97914.06;;;21.33;58.57
64078;BME280;51039;49.696;10.808;2023-05-10T12:02:36;97919.81;;;21.80;55.47
64078;BME280;51039;49.696;10.808;2023-05-10T12:05:02;97912.28;;;21.53;54.02
64078;BME280;51039;49.696;10.808;2023-05-10T12:07:30;97915.41;;;22.13;53.56
64078;BME280;51039;49.696;10.808;2023-05-10T12:10:02;97917.97;;;23.19;49.81
64078;BME280;51039;49.696;10.808;2023-05-10T12:12:46;97916.75;;;23.58;49.47
64078;BME280;51039;49.696;10.808;2023-05-10T12:17:45;97916.69;;;22.59;50.77
64078;BME280;51039;49.696;10.808;2023-05-10T12:22:57;97912.63;;;22.62;51.69
64078;BME280;51039;49.696;10.808;2023-05-10T12:25:24;97923.53;;;22.32;50.40
64078;BME280;51039;49.696;10.808;2023-05-10T12:27:55;97922.31;;;22.82;50.15
64078;BME280;51039;49.696;10.808;2023-05-10T12:30:25;97928.88;;;22.94;50.46
64078;BME280;51039;49.696;10.808;2023-05-10T12:32:52;97918.81;;;22.62;50.52
64078;BME280;51039;49.696;10.808;2023-05-10T12:35:19;97924.38;;;22.52;50.40
64078;BME280;51039;49.696;10.808;2023-05-10T12:37:47;97922.69;;;21.89;50.90
64078;BME280;51039;49.696;10.808;2023-05-10T12:40:13;97921.59;;;21.66;50.90
64078;BME280;51039;49.696;10.808;2023-05-10T12:42:39;97919.78;;;21.85;52.35
64078;BME280;51039;49.696;10.808;2023-05-10T12:45:05;97929.16;;;21.64;52.38
64078;BME280;51039;49.696;10.808;2023-05-10T12:47:31;97928.06;;;21.35;52.52
64078;BME280;51039;49.696;10.808;2023-05-10T12:49:58;97927.25;;;21.35;53.52
64078;BME280;51039;49.696;10.808;2023-05-10T12:52:24;97925.31;;;21.41;54.05
64078;BME280;51039;49.696;10.808;2023-05-10T12:54:50;97931.13;;;21.24;53.68
64078;BME280;51039;49.696;10.808;2023-05-10T12:57:16;97914.22;;;21.47;54.09
64078;BME280;51039;49.696;10.808;2023-05-10T12:59:41;97925.91;;;21.32;53.98
64078;BME280;51039;49.696;10.808;2023-05-10T13:02:08;97926.38;;;21.10;54.83
64078;BME280;51039;49.696;10.808;2023-05-10T13:04:33;97919.69;;;21.37;55.07
64078;BME280;51039;49.696;10.808;2023-05-10T13:06:59;97924.81;;;21.38;54.66
64078;BME280;51039;49.696;10.808;2023-05-10T13:09:24;97924.06;;;21.86;51.73
64078;BME280;51039;49.696;10.808;2023-05-10T13:11:51;97918.38;;;21.64;52.66
64078;BME280;51039;49.696;10.808;2023-05-10T13:14:18;97924.50;;;21.45;54.31
64078;BME280;51039;49.696;10.808;2023-05-10T13:16:45;97929.28;;;21.19;55.81